Time;durP1;ratioP1;P1;durP2;ratioP2;P2;SDS_P1;SDS_P2;PMS_P1;PMS_P2;Temp;Humidity;BMP_temperature;BMP_pressure;BME280_temperature;BME280_humidity;BME280_pressure;Samples;Min_cycle;Max_cycle;Signal;HPM_P1;HPM_P2
2022/03/10 00:02:07;;;;;;;6.97;4.15;;;2.60;67.30;;;;;;5097575;28;20024;-81
2022/03/10 00:04:39;;;;;;;7.60;4.60;;;2.60;68.00;;;;;;5097032;28;20105;-81
2022/03/10 00:07:05;;;;;;;8.15;4.55;;;2.50;67.60;;;;;;5096373;28;20040;-82
2022/03/10 00:09:32;;;;;;;5.82;3.70;;;2.50;67.90;;;;;;5111872;28;20052;-82
2022/03/10 00:12:01;;;;;;;6.30;3.83;;;2.40;67.90;;;;;;5071884;28;20029;-81
2022/03/10 00:14:28;;;;;;;6.72;3.95;;;2.40;68.00;;;;;;5076294;28;20106;-83
2022/03/10 00:16:54;;;;;;;6.95;3.92;;;2.40;68.10;;;;;;5075299;28;20043;-82
2022/03/10 00:19:20;;;;;;;5.78;3.58;;;2.40;68.30;;;;;;5075330;28;20045;-80
2022/03/10 00:21:50;;;;;;;7.20;3.92;;;2.30;68.30;;;;;;5083586;28;20063;-81
2022/03/10 00:24:18;;;;;;;6.65;3.60;;;2.30;68.30;;;;;;5069015;28;20060;-83
2022/03/10 00:26:45;;;;;;;7.50;4.10;;;2.20;68.40;;;;;;5086238;28;20017;-82
2022/03/10 00:29:11;;;;;;;8.02;3.92;;;2.20;68.50;;;;;;5083080;28;20134;-83
2022/03/10 00:31:36;;;;;;;8.90;4.45;;;2.20;68.50;;;;;;5098943;28;20540;-83
2022/03/10 00:34:02;;;;;;;6.28;4.13;;;2.20;68.50;;;;;;5085223;28;20029;-82
2022/03/10 00:36:28;;;;;;;9.60;4.38;;;2.10;68.40;;;;;;5095127;28;20047;-81
2022/03/10 00:38:54;;;;;;;10.18;4.85;;;2.10;68.50;;;;;;5092642;28;20032;-80
2022/03/10 00:41:21;;;;;;;6.55;3.78;;;2.00;68.50;;;;;;5094393;28;20058;-81
2022/03/10 00:43:49;;;;;;;5.93;3.67;;;2.00;68.70;;;;;;5079289;28;20116;-80
2022/03/10 00:46:15;;;;;;;6.78;3.85;;;2.00;69.00;;;;;;5095831;28;20013;-80
2022/03/10 00:48:41;;;;;;;5.32;3.53;;;2.00;69.20;;;;;;5069074;28;20029;-81
2022/03/10 00:51:07;;;;;;;7.28;3.80;;;2.00;69.20;;;;;;5084343;28;20381;-83
2022/03/10 00:53:34;;;;;;;8.18;4.05;;;2.00;69.10;;;;;;5111409;28;20040;-79
2022/03/10 00:56:05;;;;;;;7.47;3.67;;;2.00;69.00;;;;;;5089001;28;20032;-83
2022/03/10 00:58:31;;;;;;;8.30;4.10;;;1.90;69.10;;;;;;5101045;28;20024;-81
2022/03/10 01:00:57;;;;;;;7.05;4.18;;;1.90;69.30;;;;;;5103168;28;20116;-82
2022/03/10 01:03:23;;;;;;;7.65;4.05;;;1.90;69.40;;;;;;5069801;28;20104;-81
2022/03/10 01:05:49;;;;;;;6.75;4.30;;;1.90;69.60;;;;;;5084926;28;20479;-83
2022/03/10 01:08:15;;;;;;;6.85;3.90;;;1.80;69.60;;;;;;5068159;28;20045;-82
2022/03/10 01:10:41;;;;;;;8.88;4.65;;;1.80;69.90;;;;;;5084089;28;20036;-81
2022/03/10 01:13:18;;;;;;;8.60;4.40;;;1.80;70.00;;;;;;5079983;28;20043;-82
2022/03/10 01:15:47;;;;;;;9.10;4.35;;;1.70;70.20;;;;;;5080855;28;20020;-83
2022/03/10 01:18:14;;;;;;;6.72;3.50;;;1.70;70.40;;;;;;5062102;28;20083;-82
2022/03/10 01:20:40;;;;;;;6.45;3.70;;;1.70;70.50;;;;;;5077983;28;20020;-83
2022/03/10 01:23:06;;;;;;;7.30;3.78;;;1.70;70.70;;;;;;5081497;28;20032;-82
2022/03/10 01:25:32;;;;;;;8.32;4.32;;;1.60;70.70;;;;;;5080719;28;20096;-81
2022/03/10 01:27:57;;;;;;;9.57;3.72;;;1.60;70.90;;;;;;5096091;28;20024;-82
2022/03/10 01:30:23;;;;;;;8.07;4.20;;;1.50;70.90;;;;;;5061826;28;20033;-83
2022/03/10 01:32:49;;;;;;;7.90;4.43;;;1.50;71.20;;;;;;5085645;28;20028;-82
2022/03/10 01:35:16;;;;;;;8.07;4.32;;;1.50;71.40;;;;;;5101915;28;20032;-82
2022/03/10 01:37:43;;;;;;;6.90;3.55;;;1.40;71.50;;;;;;5101970;28;20427;-83
2022/03/10 01:40:11;;;;;;;6.93;3.78;;;1.50;71.80;;;;;;5102685;28;20041;-83
2022/03/10 01:42:38;;;;;;;7.13;3.63;;;1.50;71.80;;;;;;5079217;28;20052;-82
2022/03/10 01:45:05;;;;;;;7.85;4.07;;;1.40;71.90;;;;;;5088026;28;20389;-83
2022/03/10 01:47:31;;;;;;;6.60;4.30;;;1.40;72.20;;;;;;5070404;28;20029;-82
2022/03/10 01:49:57;;;;;;;5.05;3.38;;;1.40;72.30;;;;;;5069198;28;20035;-82
2022/03/10 01:52:24;;;;;;;6.57;3.25;;;1.40;72.40;;;;;;5070204;28;20032;-82
2022/03/10 01:54:49;;;;;;;7.05;4.07;;;1.50;72.50;;;;;;5069538;28;20028;-81
2022/03/10 01:57:16;;;;;;;8.10;3.92;;;1.40;72.40;;;;;;5105210;28;20052;-81
2022/03/10 01:59:42;;;;;;;8.35;3.95;;;1.40;72.20;;;;;;5103405;28;20070;-82
2022/03/10 02:02:09;;;;;;;6.32;3.70;;;1.40;72.20;;;;;;5087421;28;20028;-83
2022/03/10 02:04:35;;;;;;;11.32;4.13;;;1.40;72.30;;;;;;5104525;28;20034;-83
2022/03/10 02:07:04;;;;;;;6.88;3.78;;;1.30;72.40;;;;;;5104190;28;20153;-83
2022/03/10 02:12:14;;;;;;;6.35;3.50;;;1.30;72.70;;;;;;5085310;28;20056;-81
2022/03/10 02:17:28;;;;;;;7.00;3.38;;;1.20;72.60;;;;;;5070076;28;20539;-83
2022/03/10 02:19:56;;;;;;;6.25;3.75;;;1.20;72.80;;;;;;5072996;28;20020;-82
2022/03/10 02:22:23;;;;;;;4.97;3.17;;;1.20;72.90;;;;;;5067580;28;20029;-83
2022/03/10 02:24:51;;;;;;;6.32;3.45;;;1.20;73.50;;;;;;5067437;28;20105;-83
2022/03/10 02:27:25;;;;;;;8.38;4.70;;;1.20;73.00;;;;;;5065643;28;20055;-82
2022/03/10 02:29:55;;;;;;;6.53;3.42;;;1.20;73.00;;;;;;5062509;28;20028;-83
2022/03/10 02:32:22;;;;;;;5.30;3.90;;;1.10;73.00;;;;;;5088244;28;20035;-82
2022/03/10 02:34:48;;;;;;;5.90;3.80;;;1.10;73.20;;;;;;5069859;28;20020;-82
2022/03/10 02:37:15;;;;;;;7.05;3.35;;;1.10;73.30;;;;;;5105518;28;20503;-82
2022/03/10 02:39:42;;;;;;;6.75;3.55;;;1.10;73.50;;;;;;5088283;28;20029;-81
2022/03/10 02:42:09;;;;;;;5.15;3.20;;;1.00;73.60;;;;;;5068327;28;20076;-82
2022/03/10 02:44:43;;;;;;;6.32;4.00;;;1.00;73.80;;;;;;5068884;28;20024;-81
2022/03/10 02:47:09;;;;;;;5.47;3.72;;;1.10;74.00;;;;;;5107118;28;20024;-82
2022/03/10 02:49:35;;;;;;;6.03;3.45;;;1.00;74.00;;;;;;5094627;28;20094;-81
2022/03/10 02:52:03;;;;;;;4.97;3.08;;;1.00;74.20;;;;;;5091158;28;20451;-81
2022/03/10 02:54:29;;;;;;;5.13;2.90;;;1.00;74.40;;;;;;5080797;28;20047;-82
2022/03/10 02:56:56;;;;;;;6.13;3.53;;;1.00;74.70;;;;;;5082350;28;20020;-81
2022/03/10 02:59:21;;;;;;;4.80;3.15;;;1.00;75.10;;;;;;5082594;28;20276;-82
2022/03/10 03:01:47;;;;;;;7.53;3.58;;;1.00;75.50;;;;;;5083274;28;20072;-81
2022/03/10 03:04:13;;;;;;;3.95;2.90;;;1.00;75.70;;;;;;5065858;28;20025;-82
2022/03/10 03:06:39;;;;;;;3.70;2.88;;;1.00;75.80;;;;;;5100669;28;20023;-82
2022/03/10 03:09:04;;;;;;;6.95;3.28;;;1.00;76.00;;;;;;5084363;28;20025;-82
2022/03/10 03:11:30;;;;;;;5.90;3.40;;;1.00;76.20;;;;;;5084881;28;20024;-83
2022/03/10 03:13:56;;;;;;;4.80;2.92;;;1.00;76.40;;;;;;5065458;28;20120;-83
2022/03/10 03:16:24;;;;;;;4.32;2.90;;;0.90;76.50;;;;;;5063512;28;20027;-83
2022/03/10 03:18:50;;;;;;;5.72;2.85;;;0.90;76.80;;;;;;5084425;28;20024;-80
2022/03/10 03:21:17;;;;;;;5.70;3.60;;;0.90;77.10;;;;;;5085699;28;20036;-83
2022/03/10 03:23:43;;;;;;;6.28;3.25;;;0.80;77.50;;;;;;5086082;28;20017;-82
2022/03/10 03:26:09;;;;;;;5.43;3.08;;;0.80;78.00;;;;;;5067968;28;20388;-81
2022/03/10 03:28:35;;;;;;;6.65;3.25;;;0.80;78.00;;;;;;5067608;28;20125;-82
2022/03/10 03:31:00;;;;;;;6.95;3.35;;;0.80;77.90;;;;;;5099566;28;20028;-83
2022/03/10 03:33:26;;;;;;;5.47;3.10;;;0.80;77.70;;;;;;5085849;28;20029;-81
2022/03/10 03:35:52;;;;;;;6.35;3.03;;;0.80;77.80;;;;;;5087086;28;20090;-83
2022/03/10 03:38:17;;;;;;;6.53;3.60;;;0.70;77.80;;;;;;5085916;28;20020;-82
2022/03/10 03:40:43;;;;;;;4.80;3.45;;;0.70;77.60;;;;;;5084156;28;20097;-82
2022/03/10 03:43:09;;;;;;;6.25;3.85;;;0.60;77.40;;;;;;5067150;28;20020;-82
2022/03/10 03:45:35;;;;;;;5.72;3.38;;;0.60;77.30;;;;;;5087489;28;20017;-81
2022/03/10 03:48:00;;;;;;;4.80;3.10;;;0.60;77.40;;;;;;5085472;28;20093;-83
2022/03/10 03:50:26;;;;;;;7.10;3.17;;;0.60;77.40;;;;;;5085655;28;20058;-81
2022/03/10 03:52:52;;;;;;;5.85;3.13;;;0.60;77.30;;;;;;5084817;28;20028;-82
2022/03/10 03:55:17;;;;;;;4.85;3.10;;;0.60;77.50;;;;;;5084563;28;20024;-82
2022/03/10 03:57:43;;;;;;;6.40;3.63;;;0.60;77.50;;;;;;5087906;28;20446;-80
2022/03/10 04:00:10;;;;;;;5.65;3.10;;;0.60;77.50;;;;;;5095490;28;20013;-80
2022/03/10 04:02:36;;;;;;;4.63;2.92;;;0.60;77.50;;;;;;5095423;28;20039;-81
2022/03/10 04:05:03;;;;;;;5.88;3.20;;;0.60;77.30;;;;;;5107701;28;20028;-80
2022/03/10 04:07:29;;;;;;;3.80;2.78;;;0.60;77.30;;;;;;5079433;28;20039;-81
2022/03/10 04:09:55;;;;;;;6.25;3.60;;;0.60;77.30;;;;;;5096997;28;20037;-82
2022/03/10 04:12:21;;;;;;;4.28;3.08;;;0.60;77.40;;;;;;5094418;28;20032;-82
2022/03/10 04:14:46;;;;;;;6.85;3.40;;;0.60;77.50;;;;;;5092034;28;20121;-80
2022/03/10 04:17:12;;;;;;;6.32;3.33;;;0.50;77.70;;;;;;5086864;28;20108;-83
2022/03/10 04:19:38;;;;;;;5.75;3.20;;;0.50;78.60;;;;;;5062618;28;20052;-82
2022/03/10 04:22:04;;;;;;;7.93;3.78;;;0.50;77.90;;;;;;5078773;28;20013;-80
2022/03/10 04:24:30;;;;;;;6.43;3.60;;;0.50;77.70;;;;;;5090720;28;20029;-82
2022/03/10 04:26:56;;;;;;;5.40;3.45;;;0.50;77.60;;;;;;5062625;28;20055;-82
2022/03/10 04:29:22;;;;;;;3.88;2.85;;;0.60;77.80;;;;;;5068577;28;20036;-82
2022/03/10 04:31:48;;;;;;;4.47;3.00;;;0.60;77.80;;;;;;5084060;28;20050;-84
2022/03/10 04:34:14;;;;;;;5.70;3.00;;;0.60;77.90;;;;;;5084971;28;20021;-82
2022/03/10 04:36:40;;;;;;;4.60;2.58;;;0.60;78.10;;;;;;5085274;28;20100;-84
2022/03/10 04:39:05;;;;;;;4.20;2.65;;;0.50;78.10;;;;;;5083776;28;20134;-83
2022/03/10 04:41:31;;;;;;;5.40;3.33;;;0.50;78.40;;;;;;5084985;28;20052;-83
2022/03/10 04:43:57;;;;;;;4.35;2.70;;;0.50;78.50;;;;;;5085627;28;20029;-82
2022/03/10 04:46:23;;;;;;;5.32;3.05;;;0.40;78.70;;;;;;5084323;28;20028;-83
2022/03/10 04:48:49;;;;;;;5.15;3.08;;;0.40;78.90;;;;;;5102145;28;20026;-83
2022/03/10 04:51:15;;;;;;;4.50;2.55;;;0.40;79.10;;;;;;5068507;28;20024;-82
2022/03/10 04:53:47;;;;;;;5.10;3.50;;;0.40;79.20;;;;;;5079653;28;20031;-82
2022/03/10 04:56:16;;;;;;;5.10;2.75;;;0.40;79.30;;;;;;5063710;28;20028;-83
2022/03/10 04:58:42;;;;;;;7.18;2.97;;;0.40;79.40;;;;;;5082522;28;20025;-82
2022/03/10 05:01:07;;;;;;;5.85;3.88;;;0.40;79.20;;;;;;5071198;28;20031;-84
2022/03/10 05:03:33;;;;;;;5.45;3.15;;;0.50;79.20;;;;;;5087947;28;20084;-82
2022/03/10 05:06:00;;;;;;;6.38;3.70;;;0.40;79.00;;;;;;5065373;28;20032;-82
2022/03/10 05:08:26;;;;;;;5.57;3.50;;;0.50;78.90;;;;;;5083700;28;20077;-84
2022/03/10 05:10:52;;;;;;;4.03;2.97;;;0.40;78.80;;;;;;5093952;28;20033;-82
2022/03/10 05:13:18;;;;;;;6.10;3.63;;;0.40;78.50;;;;;;5063393;28;20024;-81
2022/03/10 05:15:44;;;;;;;8.52;3.45;;;0.40;79.00;;;;;;5065529;28;20025;-79
2022/03/10 05:18:09;;;;;;;6.80;3.42;;;0.30;77.90;;;;;;5084317;28;20029;-81
2022/03/10 05:20:35;;;;;;;6.53;3.28;;;0.30;77.70;;;;;;5065462;28;20124;-83
2022/03/10 05:23:03;;;;;;;6.00;3.55;;;0.30;77.70;;;;;;5091169;28;20033;-80
2022/03/10 05:25:40;;;;;;;5.43;2.90;;;0.30;77.70;;;;;;5110332;28;20058;-81
2022/03/10 05:28:15;;;;;;;6.50;3.20;;;0.30;77.60;;;;;;5078204;28;20028;-82
2022/03/10 05:30:48;;;;;;;6.75;3.42;;;0.20;77.50;;;;;;5093526;28;20453;-82
2022/03/10 05:33:14;;;;;;;;;;;0.10;77.50;;;;;;5071462;28;20024;-81
2022/03/10 05:35:40;;;;;;;8.27;3.17;;;0.10;77.70;;;;;;5087203;28;19904;-83
2022/03/10 05:38:05;;;;;;;6.45;3.25;;;0.10;77.90;;;;;;5087483;28;20019;-83
2022/03/10 05:40:31;;;;;;;7.35;3.13;;;0.10;78.10;;;;;;5092227;28;20040;-81
2022/03/10 05:42:57;;;;;;;5.03;3.17;;;0.00;78.10;;;;;;5089086;28;20024;-82
2022/03/10 05:45:24;;;;;;;6.10;3.72;;;0.00;78.30;;;;;;5088406;28;20035;-82
2022/03/10 05:47:53;;;;;;;4.55;2.53;;;0.00;78.20;;;;;;5068398;28;20457;-84
2022/03/10 05:50:19;;;;;;;6.00;3.15;;;0.10;78.90;;;;;;5086993;28;20033;-82
2022/03/10 05:52:48;;;;;;;9.13;3.75;;;0.10;78.40;;;;;;5088396;28;20031;-83
2022/03/10 05:55:16;;;;;;;7.43;4.05;;;0.20;78.20;;;;;;5087835;28;20028;-82
2022/03/10 05:57:42;;;;;;;4.82;3.03;;;0.20;77.90;;;;;;5100880;22;20048;-81
2022/03/10 06:00:10;;;;;;;5.90;3.63;;;0.20;77.80;;;;;;5075207;28;20017;-79
2022/03/10 06:02:37;;;;;;;6.28;3.92;;;0.30;77.80;;;;;;5077358;28;20365;-80
2022/03/10 06:05:04;;;;;;;5.85;3.88;;;0.30;77.40;;;;;;5077647;28;20427;-80
2022/03/10 06:07:30;;;;;;;6.07;3.85;;;0.30;77.30;;;;;;5074980;28;20035;-79
2022/03/10 06:09:56;;;;;;;6.60;3.38;;;0.30;77.10;;;;;;5097096;28;20024;-80
2022/03/10 06:12:23;;;;;;;5.57;3.17;;;0.30;77.10;;;;;;5079823;28;20028;-82
2022/03/10 06:14:59;;;;;;;8.57;3.67;;;0.40;77.20;;;;;;5096542;28;20418;-81
2022/03/10 06:17:26;;;;;;;12.18;4.68;;;0.50;76.90;;;;;;5104833;28;20040;-79
2022/03/10 06:19:53;;;;;;;7.75;4.20;;;0.40;76.10;;;;;;5093685;28;20020;-82
2022/03/10 06:22:21;;;;;;;8.85;3.88;;;0.40;76.00;;;;;;5085910;28;20360;-79
2022/03/10 06:24:47;;;;;;;8.82;3.90;;;0.40;76.20;;;;;;5105490;28;20091;-79
2022/03/10 06:27:14;;;;;;;7.70;3.83;;;0.50;76.30;;;;;;5107713;28;20106;-81
2022/03/10 06:29:40;;;;;;;7.53;3.30;;;0.50;76.10;;;;;;5101916;28;20038;-80
2022/03/10 06:32:07;;;;;;;6.20;3.33;;;0.60;76.00;;;;;;5103143;28;20067;-81
2022/03/10 06:34:33;;;;;;;5.60;3.55;;;0.60;75.80;;;;;;5098213;28;20429;-79
2022/03/10 06:36:59;;;;;;;5.85;3.80;;;0.80;75.60;;;;;;5083380;28;20020;-79
2022/03/10 06:39:26;;;;;;;5.93;3.30;;;0.80;75.30;;;;;;5101385;28;20035;-78
2022/03/10 06:41:52;;;;;;;6.28;3.40;;;1.00;75.10;;;;;;5084482;28;20028;-80
2022/03/10 06:44:18;;;;;;;11.20;4.28;;;1.10;74.90;;;;;;5103863;28;20031;-81
2022/03/10 06:46:44;;;;;;;5.72;3.05;;;1.10;74.60;;;;;;5085476;28;20047;-80
2022/03/10 06:49:10;;;;;;;6.65;3.30;;;1.20;74.30;;;;;;5105045;28;20028;-81
2022/03/10 06:51:36;;;;;;;6.15;3.92;;;1.30;73.90;;;;;;5110422;28;20020;-80
2022/03/10 06:54:02;;;;;;;5.47;3.67;;;1.30;73.40;;;;;;5101955;28;20024;-80
2022/03/10 06:56:27;;;;;;;7.00;3.90;;;1.40;73.20;;;;;;5083338;28;20032;-79
2022/03/10 06:58:53;;;;;;;7.57;3.47;;;1.40;72.90;;;;;;5100331;28;20097;-81
2022/03/10 07:01:20;;;;;;;6.10;3.88;;;1.50;72.60;;;;;;5101382;28;20024;-81
2022/03/10 07:03:46;;;;;;;6.72;3.75;;;1.60;72.40;;;;;;5083519;28;20081;-81
2022/03/10 07:06:12;;;;;;;6.97;4.03;;;1.70;72.00;;;;;;5101165;28;20028;-80
2022/03/10 07:08:38;;;;;;;9.90;3.83;;;1.80;71.70;;;;;;5100920;28;20069;-83
2022/03/10 07:11:05;;;;;;;10.60;5.07;;;1.90;71.30;;;;;;5082529;28;20052;-82
2022/03/10 07:13:34;;;;;;;9.93;5.60;;;2.00;70.70;;;;;;5101302;28;20021;-80
2022/03/10 07:16:00;;;;;;;7.45;4.57;;;2.10;70.10;;;;;;5099146;28;20030;-79
2022/03/10 07:18:25;;;;;;;9.80;4.40;;;2.30;69.70;;;;;;5080164;28;20020;-80
2022/03/10 07:20:51;;;;;;;9.73;4.38;;;2.40;69.20;;;;;;5098977;28;20035;-80
2022/03/10 07:23:17;;;;;;;8.35;4.53;;;2.60;68.60;;;;;;5097339;28;20039;-80
2022/03/10 07:25:43;;;;;;;8.68;4.80;;;2.70;68.10;;;;;;5099155;28;20473;-80
2022/03/10 07:28:10;;;;;;;8.48;4.53;;;2.80;67.60;;;;;;5097162;28;20024;-80
2022/03/10 07:30:36;;;;;;;7.80;4.47;;;2.90;67.20;;;;;;5081138;28;20056;-81
2022/03/10 07:33:02;;;;;;;9.32;4.90;;;3.10;67.00;;;;;;5099121;28;20020;-80
2022/03/10 07:35:28;;;;;;;8.60;4.35;;;3.20;66.40;;;;;;5080584;28;20027;-80
2022/03/10 07:37:56;;;;;;;10.50;5.55;;;3.30;66.10;;;;;;5098967;28;20360;-79
2022/03/10 07:40:22;;;;;;;9.65;5.53;;;3.50;65.60;;;;;;5099351;28;20020;-82
2022/03/10 07:42:48;;;;;;;14.10;5.15;;;3.60;65.20;;;;;;5081035;28;20500;-81
2022/03/10 07:45:14;;;;;;;19.25;7.05;;;3.70;64.50;;;;;;5101160;28;20042;-81
2022/03/10 07:47:39;;;;;;;13.82;6.13;;;3.80;63.70;;;;;;5099166;28;20341;-81
2022/03/10 07:50:06;;;;;;;11.77;4.93;;;3.80;63.40;;;;;;5098345;28;20099;-80
2022/03/10 07:52:33;;;;;;;8.73;5.03;;;3.90;63.30;;;;;;5101114;28;20392;-82
2022/03/10 07:54:58;;;;;;;8.63;4.78;;;4.10;63.10;;;;;;5107207;28;20034;-80
2022/03/10 07:57:24;;;;;;;7.72;4.55;;;4.30;62.90;;;;;;5101568;28;20027;-81
2022/03/10 07:59:51;;;;;;;8.38;4.90;;;4.60;62.40;;;;;;5100863;28;20107;-80
2022/03/10 08:02:21;;;;;;;10.15;5.07;;;4.80;61.60;;;;;;5088292;28;20012;-81
2022/03/10 08:04:50;;;;;;;10.45;5.07;;;5.00;60.40;;;;;;5116030;28;20024;-82
2022/03/10 08:07:16;;;;;;;12.18;5.75;;;5.00;59.60;;;;;;5085751;28;20034;-81
2022/03/10 08:09:41;;;;;;;12.38;5.60;;;5.00;59.20;;;;;;5082810;28;20028;-80
2022/03/10 08:12:08;;;;;;;9.85;5.10;;;5.10;58.90;;;;;;5105636;28;20476;-81
2022/03/10 08:14:34;;;;;;;7.90;4.93;;;5.20;58.90;;;;;;5105640;28;20016;-81
2022/03/10 08:17:00;;;;;;;7.70;4.80;;;5.40;58.70;;;;;;5085054;28;20051;-83
2022/03/10 08:19:25;;;;;;;9.70;4.85;;;5.60;58.00;;;;;;5105484;28;20429;-83
2022/03/10 08:21:51;;;;;;;8.63;5.10;;;5.90;57.90;;;;;;5090828;28;20059;-79
2022/03/10 08:24:17;;;;;;;10.18;5.60;;;6.10;56.80;;;;;;5087734;28;20028;-81
2022/03/10 08:26:43;;;;;;;9.77;5.28;;;6.30;56.80;;;;;;5090019;28;20099;-81
2022/03/10 08:29:11;;;;;;;8.57;5.22;;;6.60;56.40;;;;;;5100966;28;20020;-81
2022/03/10 08:31:37;;;;;;;11.68;5.03;;;6.80;55.60;;;;;;5100651;28;20047;-81
2022/03/10 08:34:03;;;;;;;7.75;5.13;;;7.00;55.10;;;;;;5099416;28;20024;-80
2022/03/10 08:36:30;;;;;;;9.65;5.15;;;7.20;54.70;;;;;;5098729;28;20087;-81
2022/03/10 08:38:56;;;;;;;9.65;4.85;;;7.30;54.50;;;;;;5099522;28;20092;-82
2022/03/10 08:41:22;;;;;;;7.93;5.25;;;7.60;54.10;;;;;;5101246;28;20065;-81
2022/03/10 08:43:47;;;;;;;9.75;5.18;;;7.60;53.30;;;;;;5099904;28;20052;-81
2022/03/10 08:46:13;;;;;;;9.65;4.93;;;7.70;52.80;;;;;;5082711;28;20509;-81
2022/03/10 08:48:40;;;;;;;7.88;4.80;;;7.90;52.80;;;;;;5100145;28;20427;-81
2022/03/10 08:51:07;;;;;;;10.50;5.10;;;8.10;52.70;;;;;;5100800;28;20035;-81
2022/03/10 08:53:33;;;;;;;10.50;5.38;;;8.50;52.00;;;;;;5104845;28;20040;-82
2022/03/10 08:55:59;;;;;;;8.25;4.65;;;8.60;50.90;;;;;;5101707;28;20058;-82
2022/03/10 08:58:25;;;;;;;8.05;4.47;;;8.60;50.50;;;;;;5100990;28;20077;-80
2022/03/10 09:00:54;;;;;;;9.27;5.20;;;8.80;50.90;;;;;;5101244;28;20049;-81
2022/03/10 09:03:20;;;;;;;8.95;5.03;;;9.00;50.30;;;;;;5101890;28;20085;-81
2022/03/10 09:05:47;;;;;;;7.15;4.78;;;9.10;50.00;;;;;;5082906;28;20488;-80
2022/03/10 09:08:13;;;;;;;7.68;4.50;;;9.30;49.80;;;;;;5080964;28;20097;-80
2022/03/10 09:10:39;;;;;;;8.30;4.30;;;9.60;49.30;;;;;;5083431;28;20024;-81
2022/03/10 09:13:05;;;;;;;8.00;4.55;;;10.00;48.60;;;;;;5100932;28;20035;-81
2022/03/10 09:15:32;;;;;;;8.82;4.60;;;10.10;46.80;;;;;;5100895;28;20024;-81
2022/03/10 09:18:00;;;;;;;9.25;4.78;;;9.90;47.20;;;;;;5101631;28;20023;-80
2022/03/10 09:20:25;;;;;;;9.60;4.50;;;10.00;47.50;;;;;;5101838;28;20036;-81
2022/03/10 09:22:51;;;;;;;10.57;4.85;;;10.00;46.80;;;;;;5084339;28;20035;-82
2022/03/10 09:25:17;;;;;;;10.30;4.35;;;10.30;47.40;;;;;;5103087;28;20107;-81
2022/03/10 09:27:48;;;;;;;12.15;5.50;;;10.70;47.00;;;;;;5102664;28;20084;-80
2022/03/10 09:30:15;;;;;;;9.98;5.47;;;10.70;45.70;;;;;;5102090;28;20387;-82
2022/03/10 09:32:44;;;;;;;11.05;5.03;;;10.60;45.50;;;;;;5101667;28;20024;-80
2022/03/10 09:35:16;;;;;;;11.30;5.60;;;10.60;45.70;;;;;;5081804;28;20028;-81
2022/03/10 09:37:42;;;;;;;10.10;4.82;;;10.70;45.80;;;;;;5081045;28;20055;-81
2022/03/10 09:40:09;;;;;;;19.48;5.60;;;10.70;45.90;;;;;;5083999;28;20028;-80
2022/03/10 09:42:36;;;;;;;11.18;4.97;;;10.90;45.60;;;;;;5101124;28;20504;-80
2022/03/10 09:45:08;;;;;;;7.50;4.95;;;10.90;45.90;;;;;;5098909;28;20024;-81
2022/03/10 09:47:39;;;;;;;10.90;5.30;;;11.00;45.80;;;;;;5097845;28;20038;-80
2022/03/10 09:50:10;;;;;;;9.23;5.43;;;11.10;45.70;;;;;;5098340;28;20026;-82
2022/03/10 09:52:36;;;;;;;6.80;4.88;;;11.30;45.90;;;;;;5086465;28;20024;-83
2022/03/10 09:55:03;;;;;;;8.82;4.93;;;11.60;45.30;;;;;;5094567;28;20045;-80
2022/03/10 09:57:29;;;;;;;6.75;4.13;;;11.70;44.00;;;;;;5100962;28;20096;-80
2022/03/10 09:59:59;;;;;;;9.77;4.53;;;11.80;44.30;;;;;;5113299;28;20028;-85
2022/03/10 10:02:27;;;;;;;8.85;4.68;;;11.80;43.70;;;;;;5106067;28;20364;-84
2022/03/10 10:04:56;;;;;;;9.18;4.85;;;11.90;44.20;;;;;;5088597;28;20047;-83
2022/03/10 10:07:29;;;;;;;8.57;4.82;;;12.20;43.80;;;;;;5089060;28;20034;-83
2022/03/10 10:09:57;;;;;;;8.40;4.28;;;12.30;43.10;;;;;;5091735;28;20132;-84
2022/03/10 10:12:39;;;;;;;8.05;4.93;;;12.20;42.70;;;;;;5098158;28;20052;-84
2022/03/10 10:15:42;;;;;;;6.03;4.57;;;12.20;42.10;;;;;;5097900;28;20028;-83
2022/03/10 10:26:03;;;;;;;7.75;4.88;;;12.30;41.60;;;;;;5053657;28;20447;-84
2022/03/10 10:28:55;;;;;;;9.90;4.40;;;12.40;41.50;;;;;;4969952;28;20026;-83
2022/03/10 10:31:30;;;;;;;8.38;4.10;;;12.50;40.90;;;;;;5034305;28;20155;-83
2022/03/10 10:34:09;;;;;;;8.73;4.60;;;12.50;40.60;;;;;;5112308;28;20017;-81
2022/03/10 10:36:37;;;;;;;6.55;3.90;;;12.60;40.80;;;;;;5103025;28;20082;-80
2022/03/10 10:39:10;;;;;;;9.18;4.18;;;12.70;40.80;;;;;;5100977;28;20096;-80
2022/03/10 10:41:37;;;;;;;7.07;4.28;;;12.90;40.40;;;;;;5101525;28;20023;-81
2022/03/10 10:44:05;;;;;;;6.35;4.13;;;13.10;40.00;;;;;;5101491;28;20020;-81
2022/03/10 10:46:35;;;;;;;7.50;4.53;;;13.30;39.90;;;;;;5099467;28;20562;-84
2022/03/10 10:49:06;;;;;;;6.95;4.53;;;13.30;39.00;;;;;;5097344;28;20028;-83
2022/03/10 10:51:40;;;;;;;6.32;4.20;;;13.10;39.50;;;;;;5115086;28;20047;-85
2022/03/10 10:54:26;;;;;;;6.00;4.32;;;13.00;39.30;;;;;;5114123;28;20062;-85
2022/03/10 10:57:05;;;;;;;6.97;4.85;;;12.90;39.60;;;;;;5113741;28;20085;-84
2022/03/10 10:59:38;;;;;;;6.25;4.25;;;13.20;39.50;;;;;;5107161;28;20028;-81
2022/03/10 11:02:09;;;;;;;12.23;4.68;;;13.40;38.80;;;;;;5087864;28;20023;-82
2022/03/10 11:04:36;;;;;;;5.63;4.30;;;13.30;37.90;;;;;;5094052;28;20050;-80
2022/03/10 11:07:03;;;;;;;6.03;3.85;;;13.20;37.70;;;;;;5111353;28;20036;-81
2022/03/10 11:09:31;;;;;;;7.38;3.85;;;13.20;37.30;;;;;;5086679;28;20036;-82
2022/03/10 11:11:57;;;;;;;6.45;3.67;;;13.20;36.50;;;;;;5105449;28;20024;-82
2022/03/10 11:14:23;;;;;;;7.30;4.03;;;13.30;36.10;;;;;;5089297;28;20096;-82
2022/03/10 11:16:49;;;;;;;5.53;3.80;;;13.30;36.10;;;;;;5113582;28;20046;-82
2022/03/10 11:19:25;;;;;;;7.97;3.83;;;13.30;35.80;;;;;;5114381;28;20040;-82
2022/03/10 11:22:09;;;;;;;5.97;3.97;;;13.50;35.10;;;;;;5097589;28;20047;-83
2022/03/10 11:24:50;;;;;;;5.13;4.15;;;13.40;35.30;;;;;;5094491;28;20030;-82
2022/03/10 11:27:22;;;;;;;4.88;3.75;;;13.60;35.00;;;;;;5106425;28;20095;-82
2022/03/10 11:29:53;;;;;;;8.05;4.97;;;13.70;35.00;;;;;;5106648;28;20020;-82
2022/03/10 11:32:28;;;;;;;5.75;4.30;;;13.70;35.30;;;;;;5108739;28;20039;-81
2022/03/10 11:34:58;;;;;;;9.52;4.53;;;13.50;36.50;;;;;;5105267;28;20024;-82
2022/03/10 11:37:36;;;;;;;6.18;4.97;;;13.30;36.90;;;;;;5087283;28;20054;-83
2022/03/10 11:40:05;;;;;;;5.75;4.32;;;13.00;37.50;;;;;;5085445;28;20033;-82
2022/03/10 11:42:32;;;;;;;7.32;4.32;;;12.80;37.50;;;;;;5087942;28;20020;-81
2022/03/10 11:45:12;;;;;;;9.13;5.22;;;12.70;38.10;;;;;;5105146;28;20081;-82
2022/03/10 11:47:38;;;;;;;5.90;4.38;;;12.80;38.00;;;;;;5106136;28;20074;-81
2022/03/10 11:50:23;;;;;;;9.00;4.20;;;12.90;37.70;;;;;;5090221;28;20472;-83
2022/03/10 11:53:04;;;;;;;6.63;4.32;;;13.00;37.10;;;;;;5089120;28;20406;-82
2022/03/10 11:55:52;;;;;;;6.93;4.20;;;13.00;37.40;;;;;;5104200;28;20020;-81
2022/03/10 11:58:38;;;;;;;12.75;4.50;;;13.20;36.80;;;;;;5085388;28;20027;-82
2022/03/10 12:01:05;;;;;;;7.30;4.10;;;13.70;35.20;;;;;;5104624;28;20040;-81
2022/03/10 12:03:34;;;;;;;6.82;4.20;;;13.90;33.50;;;;;;5086158;28;20032;-81
2022/03/10 12:06:15;;;;;;;5.47;3.40;;;13.80;33.60;;;;;;5103115;28;20024;-82
2022/03/10 12:08:40;;;;;;;5.22;3.55;;;13.80;33.50;;;;;;5101344;28;20016;-81
2022/03/10 12:11:14;;;;;;;6.60;3.35;;;13.60;32.80;;;;;;5082819;28;20047;-80
2022/03/10 12:13:45;;;;;;;6.45;3.60;;;13.40;32.60;;;;;;5082244;28;20063;-80
2022/03/10 12:16:22;;;;;;;4.20;3.10;;;13.40;32.50;;;;;;5097258;28;20035;-80
2022/03/10 12:18:48;;;;;;;5.70;3.15;;;13.50;32.20;;;;;;5104019;28;20039;-81
2022/03/10 12:21:18;;;;;;;4.70;2.63;;;13.50;32.00;;;;;;5083515;28;20392;-81
2022/03/10 12:24:04;;;;;;;5.13;2.80;;;13.50;31.80;;;;;;5109978;28;20037;-81
2022/03/10 12:26:47;;;;;;;5.07;2.90;;;13.60;31.40;;;;;;5104352;28;20028;-82
2022/03/10 12:29:14;;;;;;;4.72;2.83;;;13.70;30.40;;;;;;5083642;28;20032;-80
2022/03/10 12:31:41;;;;;;;6.82;3.70;;;13.60;30.50;;;;;;5102227;28;20459;-82
2022/03/10 12:34:15;;;;;;;7.07;2.92;;;13.50;31.20;;;;;;5101551;28;20425;-80
2022/03/10 12:36:42;;;;;;;4.38;2.95;;;13.50;31.60;;;;;;5098311;28;20028;-80
2022/03/10 12:39:13;;;;;;;4.30;3.10;;;13.50;31.10;;;;;;5100332;28;20013;-80
2022/03/10 12:41:42;;;;;;;7.88;4.20;;;13.60;31.00;;;;;;5099326;28;20020;-81
2022/03/10 12:44:12;;;;;;;6.13;4.13;;;13.60;32.00;;;;;;5098548;28;20356;-80
2022/03/10 12:46:41;;;;;;;7.88;4.10;;;13.70;32.90;;;;;;5080152;28;20027;-81
2022/03/10 12:49:39;;;;;;;7.50;3.95;;;13.60;34.10;;;;;;5080068;28;20016;-80
2022/03/10 12:52:11;;;;;;;4.68;3.47;;;13.50;33.60;;;;;;5099581;28;20058;-79
2022/03/10 12:54:41;;;;;;;7.00;3.90;;;13.60;32.90;;;;;;5098603;28;20414;-81
2022/03/10 12:57:08;;;;;;;7.45;4.65;;;13.60;33.40;;;;;;5098483;28;20035;-81
2022/03/10 12:59:36;;;;;;;4.68;3.30;;;13.70;33.40;;;;;;5097874;28;20024;-81
2022/03/10 13:02:29;;;;;;;5.13;4.43;;;13.90;32.80;;;;;;5098151;28;20090;-82
2022/03/10 13:05:00;;;;;;;5.35;3.40;;;14.00;32.50;;;;;;5088545;28;20026;-82
2022/03/10 13:07:30;;;;;;;7.20;3.45;;;14.10;32.20;;;;;;5093617;28;20044;-81
2022/03/10 13:09:59;;;;;;;5.55;4.22;;;14.20;30.60;;;;;;5102034;28;20028;-82
2022/03/10 13:12:29;;;;;;;13.52;4.65;;;14.10;31.20;;;;;;5103856;28;20024;-82